createdAt,value
2024-02-12T00:01:39.576Z,6.19
2024-02-12T00:04:08.386Z,6.19
2024-02-12T00:06:36.264Z,6.19
2024-02-12T00:09:04.464Z,6.19
2024-02-12T00:11:31.603Z,6.17
2024-02-12T00:13:58.548Z,6.18
2024-02-12T00:16:27.330Z,6.15
2024-02-12T00:18:54.013Z,6.17
2024-02-12T00:21:20.659Z,6.13
2024-02-12T00:23:47.830Z,6.11
2024-02-12T00:26:15.565Z,6.08
2024-02-12T00:28:42.990Z,6.05
2024-02-12T00:31:13.488Z,6.03
2024-02-12T00:33:41.364Z,6.05
2024-02-12T00:36:09.100Z,6.04
2024-02-12T00:38:36.266Z,6.04
2024-02-12T00:41:02.866Z,6.03
2024-02-12T00:43:29.396Z,6.03
2024-02-12T00:45:55.863Z,6.02
2024-02-12T00:48:22.447Z,6.05
2024-02-12T00:50:49.349Z,6.06
2024-02-12T00:53:16.371Z,6.05
2024-02-12T00:55:43.312Z,6.04
2024-02-12T00:58:10.917Z,6.04
2024-02-12T01:00:37.458Z,6.03
2024-02-12T01:03:06.872Z,6.06
2024-02-12T01:05:33.427Z,6.06
2024-02-12T01:08:00.169Z,6.06
2024-02-12T01:10:27.308Z,6.07
2024-02-12T01:12:54.560Z,6.03
2024-02-12T01:15:21.056Z,6.06
2024-02-12T01:17:51.232Z,6.05
2024-02-12T01:20:21.643Z,6.03
2024-02-12T01:22:49.430Z,6.05
2024-02-12T01:25:19.031Z,6.04
2024-02-12T01:27:46.348Z,6.07
2024-02-12T01:30:14.298Z,6.04
2024-02-12T01:32:40.966Z,6.04
2024-02-12T01:35:07.828Z,6.04
2024-02-12T01:37:34.333Z,6.05
2024-02-12T01:40:00.972Z,6.05
2024-02-12T01:42:27.440Z,6.06
2024-02-12T01:45:14.836Z,6.03
2024-02-12T01:47:44.123Z,6.00
2024-02-12T01:50:17.287Z,5.99
2024-02-12T01:52:50.170Z,5.99
2024-02-12T01:55:17.444Z,5.99
2024-02-12T01:57:47.920Z,6.01
2024-02-12T02:00:18.521Z,6.01
2024-02-12T02:02:58.742Z,6.01
2024-02-12T02:05:27.027Z,6.00
2024-02-12T02:07:54.990Z,6.03
2024-02-12T02:10:21.775Z,6.04
2024-02-12T02:12:49.892Z,6.07
2024-02-12T02:15:16.951Z,6.06
2024-02-12T02:17:43.525Z,6.04
2024-02-12T02:20:11.944Z,6.04
2024-02-12T02:22:39.426Z,6.07
2024-02-12T02:25:06.823Z,6.08
2024-02-12T02:27:35.037Z,6.11
2024-02-12T02:30:09.418Z,6.12
2024-02-12T02:32:37.312Z,6.14
2024-02-12T02:35:06.066Z,6.14
2024-02-12T02:37:33.603Z,6.16
2024-02-12T02:40:00.351Z,6.20
2024-02-12T02:42:26.864Z,6.18
2024-02-12T02:44:55.227Z,6.19
2024-02-12T02:47:21.747Z,6.20
2024-02-12T02:49:48.499Z,6.21
2024-02-12T02:52:15.205Z,6.20
2024-02-12T02:54:44.235Z,6.23
2024-02-12T02:57:12.846Z,6.24
2024-02-12T02:59:39.886Z,6.28
2024-02-12T03:02:10.012Z,6.26
2024-02-12T03:04:37.011Z,6.29
2024-02-12T03:07:03.768Z,6.27
2024-02-12T03:09:30.258Z,6.27
2024-02-12T03:11:57.386Z,6.27
2024-02-12T03:14:23.970Z,6.28
2024-02-12T03:16:54.863Z,6.30
2024-02-12T03:19:21.502Z,6.28
2024-02-12T03:21:50.959Z,6.28
2024-02-12T03:24:20.860Z,6.29
2024-02-12T03:26:49.033Z,6.28
2024-02-12T03:29:15.653Z,6.28
2024-02-12T03:31:42.293Z,6.29
2024-02-12T03:34:09.203Z,6.29
2024-02-12T03:36:35.705Z,6.29
2024-02-12T03:39:02.167Z,6.33
2024-02-12T03:41:28.728Z,6.34
2024-02-12T03:43:56.424Z,6.35
2024-02-12T03:46:29.436Z,6.35
2024-02-12T03:49:16.213Z,6.39
2024-02-12T03:52:01.527Z,6.40
2024-02-12T03:54:46.535Z,6.38
2024-02-12T03:57:31.853Z,6.42
2024-02-12T03:59:58.557Z,6.41
2024-02-12T04:02:25.007Z,6.41
2024-02-12T04:04:51.823Z,6.40
2024-02-12T04:07:20.550Z,6.43
2024-02-12T04:09:47.015Z,6.46
2024-02-12T04:12:13.639Z,6.45
2024-02-12T04:14:43.863Z,6.48
2024-02-12T04:17:11.018Z,6.50
2024-02-12T04:19:37.982Z,6.47
2024-02-12T04:22:08.110Z,6.47
2024-02-12T04:24:37.264Z,6.49
2024-02-12T04:27:05.049Z,6.49
2024-02-12T04:29:32.986Z,6.50
2024-02-12T04:31:59.564Z,6.49
2024-02-12T04:34:26.083Z,6.49
2024-02-12T04:36:56.473Z,6.47
2024-02-12T04:39:22.957Z,6.44
2024-02-12T04:41:52.380Z,6.45
2024-02-12T04:44:19.367Z,6.47
2024-02-12T04:46:46.490Z,6.47
2024-02-12T04:49:14.155Z,6.49
2024-02-12T04:51:41.577Z,6.48
2024-02-12T04:54:08.840Z,6.50
2024-02-12T04:56:35.522Z,6.48
2024-02-12T04:59:02.223Z,6.46
2024-02-12T05:01:28.861Z,6.46
2024-02-12T05:03:55.440Z,6.49
2024-02-12T05:06:22.034Z,6.49
2024-02-12T05:08:48.697Z,6.47
2024-02-12T05:11:18.216Z,6.50
2024-02-12T05:13:45.110Z,6.51
2024-02-12T05:16:12.445Z,6.52
2024-02-12T05:18:59.249Z,6.54
2024-02-12T05:21:44.302Z,6.56
2024-02-12T05:24:11.381Z,6.54
2024-02-12T05:26:40.040Z,6.56
2024-02-12T05:29:08.225Z,6.57
2024-02-12T05:31:36.755Z,6.59
2024-02-12T05:34:04.323Z,6.61
2024-02-12T05:36:31.774Z,6.63
2024-02-12T05:38:58.380Z,6.66
2024-02-12T05:41:24.978Z,6.64
2024-02-12T05:43:54.127Z,6.69
2024-02-12T05:46:20.969Z,6.71
2024-02-12T05:48:48.637Z,6.72
2024-02-12T05:51:15.688Z,6.70
2024-02-12T05:53:42.618Z,6.73
2024-02-12T05:56:09.179Z,6.71
2024-02-12T05:58:35.856Z,6.72
2024-02-12T06:01:02.479Z,6.68
2024-02-12T06:03:29.087Z,6.69
2024-02-12T06:05:55.783Z,6.66
2024-02-12T06:08:22.416Z,6.67
2024-02-12T06:10:48.929Z,6.68
2024-02-12T06:13:15.750Z,6.66
2024-02-12T06:15:44.173Z,6.64
2024-02-12T06:18:11.314Z,6.64
2024-02-12T06:20:37.995Z,6.64
2024-02-12T06:23:05.136Z,6.63
2024-02-12T06:25:31.787Z,6.62
2024-02-12T06:27:59.074Z,6.61
2024-02-12T06:30:25.601Z,6.62
2024-02-12T06:32:52.391Z,6.62
2024-02-12T06:35:19.083Z,6.63
2024-02-12T06:37:48.487Z,6.58
2024-02-12T06:40:15.069Z,6.59
2024-02-12T06:42:43.441Z,6.58
2024-02-12T06:45:10.224Z,6.53
2024-02-12T06:47:36.876Z,6.57
2024-02-12T06:50:07.159Z,6.58
2024-02-12T06:52:34.440Z,6.57
2024-02-12T06:55:01.033Z,6.54
2024-02-12T06:57:27.566Z,6.55
2024-02-12T06:59:54.035Z,6.57
2024-02-12T07:02:20.652Z,6.56
2024-02-12T07:04:48.643Z,6.56
2024-02-12T07:07:15.694Z,6.54
2024-02-12T07:09:42.155Z,6.55
2024-02-12T07:12:08.828Z,6.52
2024-02-12T07:14:35.536Z,6.51
2024-02-12T07:17:02.164Z,6.50
2024-02-12T07:19:28.637Z,6.50
2024-02-12T07:21:55.073Z,6.54
2024-02-12T07:24:21.518Z,6.53
2024-02-12T07:26:48.022Z,6.52
2024-02-12T07:29:14.640Z,6.54
2024-02-12T07:31:44.168Z,6.52
2024-02-12T07:34:10.808Z,6.54
2024-02-12T07:36:45.177Z,6.53
2024-02-12T07:39:12.626Z,6.50
2024-02-12T07:41:40.978Z,6.49
2024-02-12T07:44:11.867Z,6.50
2024-02-12T07:46:39.511Z,6.54
2024-02-12T07:49:07.020Z,6.58
2024-02-12T07:51:33.752Z,6.59
2024-02-12T07:54:00.293Z,6.61
2024-02-12T07:56:27.502Z,6.61
2024-02-12T07:58:54.728Z,6.59
2024-02-12T08:01:21.233Z,6.63
2024-02-12T08:03:47.753Z,6.65
2024-02-12T08:06:16.291Z,6.68
2024-02-12T08:08:43.258Z,6.68
2024-02-12T08:11:09.887Z,6.67
2024-02-12T08:13:36.555Z,6.67
2024-02-12T08:16:04.901Z,6.71
2024-02-12T08:18:31.891Z,6.73
2024-02-12T08:20:58.608Z,6.77
2024-02-12T08:23:25.319Z,6.84
2024-02-12T08:25:53.902Z,6.90
2024-02-12T08:28:24.187Z,6.97
2024-02-12T08:30:51.530Z,7.00
2024-02-12T08:33:18.066Z,7.04
2024-02-12T08:35:44.643Z,7.05
2024-02-12T08:38:11.226Z,7.07
2024-02-12T08:40:37.726Z,7.16
2024-02-12T08:43:05.295Z,7.22
2024-02-12T08:45:32.458Z,7.36
2024-02-12T08:47:59.154Z,7.54
2024-02-12T08:50:25.730Z,7.75
2024-02-12T08:52:54.373Z,7.79
2024-02-12T08:55:20.973Z,7.82
2024-02-12T08:57:47.637Z,7.84
2024-02-12T09:00:15.051Z,7.93
2024-02-12T09:02:42.313Z,7.95
2024-02-12T09:05:11.689Z,7.88
2024-02-12T09:07:39.489Z,7.79
2024-02-12T09:10:08.106Z,7.83
2024-02-12T09:12:47.558Z,7.84
2024-02-12T09:15:18.593Z,7.91
2024-02-12T09:17:48.579Z,8.08
2024-02-12T09:20:15.985Z,8.12
2024-02-12T09:22:42.683Z,8.15
2024-02-12T09:25:13.572Z,8.21
2024-02-12T09:27:40.788Z,8.32
2024-02-12T09:30:10.982Z,8.43
2024-02-12T09:32:39.200Z,8.40
2024-02-12T09:35:08.007Z,8.30
2024-02-12T09:37:34.680Z,8.24
2024-02-12T09:40:04.194Z,8.21
2024-02-12T09:42:33.947Z,8.09
2024-02-12T09:45:00.704Z,8.01
2024-02-12T09:47:28.268Z,7.90
2024-02-12T09:49:55.971Z,7.97
2024-02-12T09:52:27.625Z,7.98
2024-02-12T09:54:54.898Z,7.91
2024-02-12T09:57:21.448Z,7.85
2024-02-12T09:59:49.084Z,7.86
2024-02-12T10:02:15.687Z,7.76
2024-02-12T10:04:42.900Z,7.78
2024-02-12T10:07:09.484Z,7.73
2024-02-12T10:09:37.048Z,7.70
2024-02-12T10:12:10.670Z,7.66
2024-02-12T10:14:37.535Z,7.66
2024-02-12T10:17:04.236Z,7.67
2024-02-12T10:19:30.753Z,7.74
2024-02-12T10:21:59.431Z,7.79
2024-02-12T10:24:25.923Z,7.87
2024-02-12T10:26:52.399Z,7.95
2024-02-12T10:29:19.711Z,7.98
2024-02-12T10:31:49.800Z,7.99
2024-02-12T10:34:18.614Z,7.98
2024-02-12T10:36:49.076Z,8.00
2024-02-12T10:39:19.975Z,7.95
2024-02-12T10:41:51.095Z,7.92
2024-02-12T10:44:20.704Z,7.87
2024-02-12T10:46:48.020Z,7.85
2024-02-12T10:49:16.684Z,7.82
2024-02-12T10:51:44.238Z,7.87
2024-02-12T10:54:12.035Z,7.92
2024-02-12T10:56:39.821Z,8.00
2024-02-12T10:59:06.473Z,7.97
2024-02-12T11:01:35.081Z,7.99
2024-02-12T11:04:02.443Z,8.00
2024-02-12T11:06:29.053Z,7.98
2024-02-12T11:08:56.048Z,7.97
2024-02-12T11:11:29.211Z,7.90
2024-02-12T11:14:02.555Z,7.89
2024-02-12T11:16:33.935Z,7.84
2024-02-12T11:19:02.935Z,7.84
2024-02-12T11:21:36.963Z,7.94
2024-02-12T11:24:11.484Z,8.04
2024-02-12T11:26:42.578Z,8.26
2024-02-12T11:29:09.647Z,8.48
2024-02-12T11:31:40.327Z,8.72
2024-02-12T11:34:20.468Z,9.01
2024-02-12T11:37:01.018Z,9.01
2024-02-12T11:39:27.655Z,8.86
2024-02-12T11:41:54.127Z,8.75
2024-02-12T11:44:20.757Z,8.69
2024-02-12T11:46:57.501Z,8.64
2024-02-12T11:49:24.377Z,8.57
2024-02-12T11:51:51.858Z,8.58
2024-02-12T11:54:18.941Z,8.60
2024-02-12T11:56:45.582Z,8.59
2024-02-12T11:59:12.617Z,8.61
2024-02-12T12:01:39.405Z,8.64
2024-02-12T12:04:06.380Z,8.66
2024-02-12T12:06:35.146Z,8.62
2024-02-12T12:09:04.026Z,8.66
2024-02-12T12:11:30.807Z,8.78
2024-02-12T12:13:58.809Z,8.82
2024-02-12T12:16:25.544Z,8.86
2024-02-12T12:18:52.400Z,8.86
2024-02-12T12:21:20.146Z,8.93
2024-02-12T12:23:47.811Z,9.04
2024-02-12T12:26:14.486Z,9.22
2024-02-12T12:28:41.064Z,9.49
2024-02-12T12:31:08.201Z,9.70
2024-02-12T12:33:35.825Z,9.88
2024-02-12T12:36:02.352Z,9.95
2024-02-12T12:38:28.814Z,9.87
2024-02-12T12:40:57.206Z,9.66
2024-02-12T12:43:23.838Z,9.49
2024-02-12T12:45:53.802Z,9.34
2024-02-12T12:48:20.569Z,9.16
2024-02-12T12:50:58.740Z,9.00
2024-02-12T12:53:28.720Z,8.83
2024-02-12T12:55:55.626Z,8.82
2024-02-12T12:58:22.089Z,8.78
2024-02-12T13:00:48.719Z,8.68
2024-02-12T13:03:15.321Z,8.60
2024-02-12T13:05:42.559Z,8.52
2024-02-12T13:08:19.362Z,8.47
2024-02-12T13:10:48.707Z,8.55
2024-02-12T13:13:16.667Z,8.58
2024-02-12T13:15:45.315Z,8.61
2024-02-12T13:18:14.504Z,8.58
2024-02-12T13:20:43.110Z,8.59
2024-02-12T13:23:09.669Z,8.70
2024-02-12T13:25:36.749Z,8.80
2024-02-12T13:28:04.306Z,8.83
2024-02-12T13:30:35.374Z,8.83
2024-02-12T13:33:06.243Z,8.89
2024-02-12T13:35:33.623Z,8.96
2024-02-12T13:38:00.377Z,8.98
2024-02-12T13:40:31.136Z,8.94
2024-02-12T13:42:58.931Z,8.93
2024-02-12T13:45:25.964Z,8.88
2024-02-12T13:47:56.686Z,8.83
2024-02-12T13:50:24.434Z,8.69
2024-02-12T13:52:51.422Z,8.67
2024-02-12T13:55:18.065Z,8.74
2024-02-12T13:57:45.376Z,8.88
2024-02-12T14:00:37.633Z,8.89
2024-02-12T14:03:06.712Z,8.80
2024-02-12T14:05:33.693Z,8.69
2024-02-12T14:08:00.603Z,8.56
2024-02-12T14:10:27.697Z,8.48
2024-02-12T14:12:55.076Z,8.48
2024-02-12T14:16:01.743Z,8.46
2024-02-12T14:18:10.465Z,8.45
2024-02-12T14:20:37.331Z,8.51
2024-02-12T14:23:06.622Z,8.51
2024-02-12T14:25:34.662Z,8.50
2024-02-12T14:28:01.596Z,8.44
2024-02-12T14:30:29.963Z,8.42
2024-02-12T14:32:57.133Z,8.41
2024-02-12T14:35:25.874Z,8.37
2024-02-12T14:37:57.259Z,8.46
2024-02-12T14:40:24.725Z,8.57
2024-02-12T14:42:51.384Z,8.74
2024-02-12T14:45:22.389Z,8.97
2024-02-12T14:47:48.978Z,9.19
2024-02-12T14:50:19.861Z,9.40
2024-02-12T14:52:46.788Z,9.57
2024-02-12T14:55:13.306Z,9.49
2024-02-12T14:57:43.332Z,9.26
2024-02-12T15:00:16.868Z,9.00
2024-02-12T15:02:44.293Z,8.74
2024-02-12T15:05:17.257Z,8.47
2024-02-12T15:07:46.156Z,8.27
2024-02-12T15:10:22.541Z,8.16
2024-02-12T15:12:53.617Z,8.10
2024-02-12T15:15:21.083Z,8.01
2024-02-12T15:17:53.789Z,7.90
2024-02-12T15:20:22.567Z,7.80
2024-02-12T15:22:51.163Z,7.66
2024-02-12T15:25:20.447Z,7.58
2024-02-12T15:27:48.184Z,7.50
2024-02-12T15:30:16.227Z,7.49
2024-02-12T15:32:43.270Z,7.49
2024-02-12T15:35:15.798Z,7.45
2024-02-12T15:37:47.020Z,7.33
2024-02-12T15:40:20.715Z,7.31
2024-02-12T15:42:48.238Z,7.28
2024-02-12T15:45:15.371Z,7.27
2024-02-12T15:47:45.833Z,7.22
2024-02-12T15:50:13.447Z,7.17
2024-02-12T15:52:42.270Z,7.12
2024-02-12T15:55:11.976Z,7.09
2024-02-12T15:57:39.172Z,7.08
2024-02-12T16:00:15.441Z,7.04
2024-02-12T16:02:45.081Z,6.99
2024-02-12T16:05:50.940Z,6.99
2024-02-12T16:08:20.797Z,6.93
2024-02-12T16:10:47.567Z,6.84
2024-02-12T16:13:14.313Z,6.85
2024-02-12T16:15:41.024Z,6.80
2024-02-12T16:18:09.639Z,6.76
2024-02-12T16:20:36.609Z,6.71
2024-02-12T16:23:03.518Z,6.68
2024-02-12T16:25:30.469Z,6.68
2024-02-12T16:27:57.971Z,6.66
2024-02-12T16:30:25.050Z,6.66
2024-02-12T16:32:52.441Z,6.65
2024-02-12T16:35:20.901Z,6.62
2024-02-12T16:37:48.338Z,6.60
2024-02-12T16:40:14.834Z,6.60
2024-02-12T16:42:43.019Z,6.60
2024-02-12T16:45:10.288Z,6.59
2024-02-12T16:47:41.577Z,6.64
2024-02-12T16:50:09.056Z,6.65
2024-02-12T16:52:36.535Z,6.62
2024-02-12T16:55:04.633Z,6.63
2024-02-12T16:57:34.018Z,6.63
2024-02-12T17:00:00.885Z,6.64
2024-02-12T17:02:27.669Z,6.65
2024-02-12T17:04:56.851Z,6.66
2024-02-12T17:07:25.339Z,6.67
2024-02-12T17:09:51.953Z,6.67
2024-02-12T17:12:20.253Z,6.66
2024-02-12T17:14:47.324Z,6.65
2024-02-12T17:17:15.220Z,6.67
2024-02-12T17:19:42.588Z,6.66
2024-02-12T17:22:10.907Z,6.67
2024-02-12T17:24:37.410Z,6.70
2024-02-12T17:27:04.898Z,6.72
2024-02-12T17:29:31.572Z,6.74
2024-02-12T17:31:58.689Z,6.73
2024-02-12T17:34:26.716Z,6.73
2024-02-12T17:36:53.613Z,6.73
2024-02-12T17:39:20.377Z,6.74
2024-02-12T17:41:47.053Z,6.74
2024-02-12T17:44:14.934Z,6.75
2024-02-12T17:46:42.062Z,6.77
2024-02-12T17:49:08.870Z,6.79
2024-02-12T17:51:35.550Z,6.79
2024-02-12T17:54:02.127Z,6.76
2024-02-12T17:56:28.630Z,6.77
2024-02-12T17:58:58.039Z,6.78
2024-02-12T18:01:26.539Z,6.79
2024-02-12T18:03:54.622Z,6.76
2024-02-12T18:06:22.290Z,6.75
2024-02-12T18:08:49.492Z,6.73
2024-02-12T18:11:16.217Z,6.70
2024-02-12T18:13:42.813Z,6.66
2024-02-12T18:16:09.747Z,6.64
2024-02-12T18:18:37.385Z,6.63
2024-02-12T18:21:04.760Z,6.63
2024-02-12T18:23:31.525Z,6.60
2024-02-12T18:26:00.711Z,6.55
2024-02-12T18:28:27.437Z,6.52
2024-02-12T18:30:54.000Z,6.48
2024-02-12T18:33:20.713Z,6.45
2024-02-12T18:35:48.213Z,6.44
2024-02-12T18:38:14.935Z,6.42
2024-02-12T18:40:41.934Z,6.38
2024-02-12T18:43:08.503Z,6.37
2024-02-12T18:45:35.246Z,6.31
2024-02-12T18:48:02.239Z,6.32
2024-02-12T18:50:29.814Z,6.29
2024-02-12T18:52:56.699Z,6.25
2024-02-12T18:55:23.241Z,6.21
2024-02-12T18:57:49.825Z,6.18
2024-02-12T19:00:16.893Z,6.17
2024-02-12T19:02:44.567Z,6.14
2024-02-12T19:05:11.448Z,6.13
2024-02-12T19:07:37.983Z,6.11
2024-02-12T19:10:07.072Z,6.12
2024-02-12T19:12:38.141Z,6.08
2024-02-12T19:15:06.428Z,6.07
2024-02-12T19:17:33.572Z,6.02
2024-02-12T19:20:00.184Z,6.00
2024-02-12T19:22:28.218Z,5.98
2024-02-12T19:24:54.758Z,5.94
2024-02-12T19:27:21.292Z,5.92
2024-02-12T19:29:47.940Z,5.90
2024-02-12T19:32:14.679Z,5.88
2024-02-12T19:34:41.332Z,5.86
2024-02-12T19:37:08.521Z,5.82
2024-02-12T19:39:35.173Z,5.81
2024-02-12T19:42:02.039Z,5.78
2024-02-12T19:44:28.628Z,5.78
2024-02-12T19:46:56.006Z,5.78
2024-02-12T19:49:23.595Z,5.76
2024-02-12T19:51:50.189Z,5.75
2024-02-12T19:54:16.714Z,5.75
2024-02-12T19:56:46.080Z,5.75
2024-02-12T19:59:12.720Z,5.79
2024-02-12T20:01:40.444Z,5.78
2024-02-12T20:04:08.132Z,5.77
2024-02-12T20:06:35.017Z,5.83
2024-02-12T20:09:02.242Z,5.82
2024-02-12T20:11:30.141Z,5.88
2024-02-12T20:13:56.701Z,5.89
2024-02-12T20:16:23.214Z,5.88
2024-02-12T20:18:51.021Z,5.88
2024-02-12T20:21:17.725Z,5.89
2024-02-12T20:23:44.276Z,5.89
2024-02-12T20:26:10.794Z,5.90
2024-02-12T20:28:37.264Z,5.91
2024-02-12T20:31:03.904Z,5.89
2024-02-12T20:33:33.343Z,5.87
2024-02-12T20:36:01.230Z,5.84
2024-02-12T20:38:27.762Z,5.83
2024-02-12T20:40:54.292Z,5.81
2024-02-12T20:43:20.784Z,5.79
2024-02-12T20:45:47.309Z,5.79
2024-02-12T20:48:14.118Z,5.78
2024-02-12T20:50:41.551Z,5.77
2024-02-12T20:53:09.378Z,5.77
2024-02-12T20:55:36.949Z,5.76
2024-02-12T20:58:04.960Z,5.76
2024-02-12T21:00:31.735Z,5.76
2024-02-12T21:02:58.351Z,5.72
2024-02-12T21:05:24.933Z,5.72
2024-02-12T21:07:52.241Z,5.70
2024-02-12T21:10:18.719Z,5.70
2024-02-12T21:12:45.764Z,5.70
2024-02-12T21:15:12.630Z,5.71
2024-02-12T21:17:39.272Z,5.68
2024-02-12T21:20:07.818Z,5.71
2024-02-12T21:22:34.778Z,5.69
2024-02-12T21:25:02.366Z,5.68
2024-02-12T21:27:28.912Z,5.67
2024-02-12T21:29:55.549Z,5.67
2024-02-12T21:32:23.027Z,5.67
2024-02-12T21:34:49.688Z,5.67
2024-02-12T21:37:18.670Z,5.68
2024-02-12T21:39:49.483Z,5.69
2024-02-12T21:42:24.717Z,5.69
2024-02-12T21:44:52.068Z,5.71
2024-02-12T21:47:20.241Z,5.75
2024-02-12T21:49:46.882Z,5.79
2024-02-12T21:52:13.451Z,5.80
2024-02-12T21:54:42.718Z,5.80
2024-02-12T21:57:09.261Z,5.83
2024-02-12T21:59:35.881Z,5.84
2024-02-12T22:02:02.582Z,5.84
2024-02-12T22:04:29.072Z,5.87
2024-02-12T22:06:55.635Z,5.87
2024-02-12T22:09:22.597Z,5.89
2024-02-12T22:11:49.134Z,5.91
2024-02-12T22:14:15.685Z,5.93
2024-02-12T22:16:42.280Z,5.93
2024-02-12T22:19:08.839Z,5.92
2024-02-12T22:21:39.074Z,5.88
2024-02-12T22:24:05.961Z,5.93
2024-02-12T22:26:32.691Z,5.94
2024-02-12T22:28:59.637Z,5.96
2024-02-12T22:31:28.013Z,5.97
2024-02-12T22:33:55.428Z,5.97
2024-02-12T22:36:21.956Z,5.96
2024-02-12T22:38:49.023Z,5.97
2024-02-12T22:41:17.560Z,5.94
2024-02-12T22:43:44.063Z,5.92
2024-02-12T22:46:10.714Z,5.91
2024-02-12T22:48:40.684Z,5.91
2024-02-12T22:51:07.317Z,5.90
2024-02-12T22:53:34.950Z,5.93
2024-02-12T22:56:01.765Z,5.93
2024-02-12T22:58:28.320Z,5.92
2024-02-12T23:00:56.791Z,5.91
2024-02-12T23:03:24.771Z,5.94
2024-02-12T23:05:51.426Z,5.96
2024-02-12T23:08:18.551Z,5.94
2024-02-12T23:10:45.264Z,5.98
2024-02-12T23:13:13.418Z,5.99
2024-02-12T23:15:41.053Z,6.00
2024-02-12T23:18:11.354Z,5.97
2024-02-12T23:20:38.690Z,5.97
2024-02-12T23:23:05.750Z,5.91
2024-02-12T23:25:33.914Z,5.93
2024-02-12T23:28:02.586Z,5.92
2024-02-12T23:30:29.892Z,5.94
2024-02-12T23:32:56.774Z,5.92
2024-02-12T23:35:24.182Z,5.90
2024-02-12T23:37:50.707Z,5.89
2024-02-12T23:40:17.581Z,5.88
2024-02-12T23:42:45.158Z,5.89
2024-02-12T23:45:12.492Z,5.89
2024-02-12T23:47:39.498Z,5.87
2024-02-12T23:50:17.578Z,5.87
2024-02-12T23:52:44.136Z,5.88
2024-02-12T23:55:10.826Z,5.87
2024-02-12T23:57:40.046Z,5.88
